Time;durP1;ratioP1;P1;durP2;ratioP2;P2;SDS_P1;SDS_P2;PMS_P1;PMS_P2;Temp;Humidity;BMP_temperature;BMP_pressure;BME280_temperature;BME280_humidity;BME280_pressure;Samples;Min_cycle;Max_cycle;Signal;HPM_P1;HPM_P2
2022/09/16 00:01:18;;;;;;;0.85;0.20;;;12.10;99.90;;;;;;6160223;23;20021;-89
2022/09/16 00:03:44;;;;;;;0.57;0.20;;;12.10;99.90;;;;;;6210033;23;20142;-88
2022/09/16 00:06:22;;;;;;;1.55;0.20;;;12.10;99.90;;;;;;6184835;23;20013;-89
2022/09/16 00:08:48;;;;;;;1.75;0.20;;;12.10;99.90;;;;;;6209812;23;20028;-87
2022/09/16 00:11:17;;;;;;;1.20;0.20;;;12.10;99.90;;;;;;6209878;23;20028;-88
2022/09/16 00:13:43;;;;;;;0.30;0.20;;;12.00;99.90;;;;;;6209879;23;20082;-88
2022/09/16 00:16:14;;;;;;;0.35;0.20;;;12.10;99.90;;;;;;6209643;23;20044;-88
2022/09/16 00:18:40;;;;;;;1.50;0.20;;;12.10;99.90;;;;;;6215119;23;20067;-88
2022/09/16 00:21:08;;;;;;;2.30;0.30;;;12.10;99.90;;;;;;6184543;23;20449;-87
2022/09/16 00:23:35;;;;;;;1.20;0.25;;;12.10;99.90;;;;;;6209480;23;20736;-89
2022/09/16 00:26:00;;;;;;;0.20;0.10;;;12.10;99.90;;;;;;6209914;23;20024;-87
2022/09/16 00:28:26;;;;;;;0.67;0.20;;;12.10;99.90;;;;;;6209555;22;20016;-88
2022/09/16 00:30:52;;;;;;;2.87;0.30;;;12.10;99.90;;;;;;6210161;22;20046;-90
2022/09/16 00:33:18;;;;;;;0.32;0.20;;;12.10;99.90;;;;;;6212169;23;20016;-89
2022/09/16 00:35:45;;;;;;;0.88;0.10;;;12.10;99.90;;;;;;6210983;23;20077;-88
2022/09/16 00:38:10;;;;;;;0.20;0.10;;;12.20;99.90;;;;;;6211044;23;20020;-89
2022/09/16 00:40:44;;;;;;;2.93;0.23;;;12.10;99.90;;;;;;6185919;23;20061;-87
2022/09/16 00:43:13;;;;;;;2.55;0.25;;;12.10;99.90;;;;;;6211044;23;20262;-89
2022/09/16 00:45:42;;;;;;;3.25;0.30;;;12.20;99.90;;;;;;6186107;23;20009;-89
2022/09/16 00:48:13;;;;;;;0.95;0.22;;;12.20;99.90;;;;;;6212732;23;20457;-89
2022/09/16 00:50:39;;;;;;;0.77;0.20;;;12.10;99.90;;;;;;6211220;23;20092;-87
2022/09/16 00:53:08;;;;;;;1.30;0.30;;;12.10;99.90;;;;;;6211027;22;20342;-90
2022/09/16 00:55:36;;;;;;;1.27;0.10;;;12.10;99.90;;;;;;6211083;23;20524;-89
2022/09/16 00:58:25;;;;;;;0.47;0.20;;;12.10;99.90;;;;;;6212518;23;20043;-89
2022/09/16 01:00:51;;;;;;;2.75;0.20;;;12.10;99.90;;;;;;6210637;23;20445;-88
2022/09/16 01:03:18;;;;;;;0.67;0.20;;;12.10;99.90;;;;;;6186012;22;20013;-87
2022/09/16 01:05:45;;;;;;;2.45;0.20;;;12.00;99.90;;;;;;6185816;23;20720;-88
2022/09/16 01:08:11;;;;;;;1.10;0.30;;;12.00;99.90;;;;;;6210513;23;20013;-88
2022/09/16 01:10:41;;;;;;;1.55;0.20;;;12.00;99.90;;;;;;6186378;23;20021;-88
2022/09/16 01:13:09;;;;;;;1.77;0.28;;;11.90;99.90;;;;;;6212143;23;20016;-87
2022/09/16 01:16:00;;;;;;;0.55;0.28;;;11.90;99.90;;;;;;6212331;23;20457;-87
2022/09/16 01:18:47;;;;;;;0.65;0.10;;;11.90;99.90;;;;;;6211013;23;20023;-89
2022/09/16 01:21:31;;;;;;;0.90;0.22;;;11.90;99.90;;;;;;6210762;23;20021;-86
2022/09/16 01:24:10;;;;;;;1.00;0.25;;;12.00;99.90;;;;;;6210750;23;20012;-86
2022/09/16 01:26:53;;;;;;;0.25;0.20;;;12.00;99.90;;;;;;6210462;22;20017;-86
2022/09/16 01:29:46;;;;;;;1.67;0.25;;;12.00;99.90;;;;;;6212221;23;20021;-89
2022/09/16 01:32:37;;;;;;;2.10;0.20;;;12.00;99.90;;;;;;6210563;22;20461;-88
2022/09/16 01:35:44;;;;;;;1.30;0.13;;;12.00;99.90;;;;;;6198529;23;20020;-88
2022/09/16 01:38:39;;;;;;;0.63;0.13;;;12.00;99.90;;;;;;6210506;23;20025;-88
2022/09/16 01:41:27;;;;;;;0.38;0.10;;;12.00;99.90;;;;;;6185260;23;20476;-87
2022/09/16 01:44:07;;;;;;;1.65;0.30;;;11.90;99.90;;;;;;6210091;23;20017;-90
2022/09/16 01:46:55;;;;;;;1.15;0.10;;;11.90;99.90;;;;;;6210725;22;20029;-90
2022/09/16 01:49:31;;;;;;;1.27;0.10;;;11.90;99.90;;;;;;6210901;23;20391;-87
2022/09/16 01:52:16;;;;;;;0.77;0.22;;;11.90;99.90;;;;;;6212255;22;20016;-89
2022/09/16 01:55:09;;;;;;;2.38;0.30;;;11.90;99.90;;;;;;6210397;23;20021;-89
2022/09/16 01:58:19;;;;;;;0.75;0.20;;;11.90;99.90;;;;;;6209958;23;20017;-88
2022/09/16 02:00:46;;;;;;;1.20;0.38;;;11.90;99.90;;;;;;6211613;22;20016;-88
2022/09/16 02:03:27;;;;;;;1.23;0.30;;;11.90;99.90;;;;;;6210575;23;20069;-88
2022/09/16 02:06:04;;;;;;;1.15;0.30;;;11.90;99.90;;;;;;6185461;23;20031;-89
2022/09/16 02:08:48;;;;;;;0.55;0.10;;;11.90;99.90;;;;;;6211949;23;20013;-86
2022/09/16 02:11:15;;;;;;;0.68;0.10;;;11.90;99.90;;;;;;6210796;23;20134;-90
2022/09/16 02:14:03;;;;;;;1.00;0.20;;;11.90;99.90;;;;;;6210403;23;20032;-90
2022/09/16 02:16:34;;;;;;;;;;;11.90;99.90;;;;;;6210960;23;20013;-86
2022/09/16 02:19:06;;;;;;;1.15;0.22;;;11.90;99.90;;;;;;6186064;22;19923;-89
2022/09/16 02:21:35;;;;;;;0.73;0.20;;;11.90;99.90;;;;;;6210620;23;20488;-87
2022/09/16 02:24:07;;;;;;;1.65;0.30;;;11.90;99.90;;;;;;6212425;23;20061;-91
2022/09/16 02:26:38;;;;;;;1.33;0.20;;;11.90;99.90;;;;;;6196406;23;20049;-86
2022/09/16 02:29:13;;;;;;;1.20;0.30;;;11.90;99.90;;;;;;6194430;23;20055;-89
2022/09/16 02:31:44;;;;;;;0.68;0.20;;;11.90;99.90;;;;;;6212228;23;20064;-91
2022/09/16 02:34:18;;;;;;;1.17;0.25;;;11.90;99.90;;;;;;6160441;23;20020;-89
2022/09/16 02:36:51;;;;;;;1.45;0.30;;;11.90;99.90;;;;;;6210620;23;20016;-87
2022/09/16 02:39:21;;;;;;;1.33;0.30;;;11.90;99.90;;;;;;6210427;23;20027;-89
2022/09/16 02:41:48;;;;;;;1.50;0.20;;;11.90;99.90;;;;;;6210082;23;20035;-87
2022/09/16 02:44:13;;;;;;;0.52;0.28;;;11.80;99.90;;;;;;6210082;23;20481;-87
2022/09/16 02:46:47;;;;;;;1.02;0.20;;;11.80;99.90;;;;;;6185616;22;20104;-88
2022/09/16 02:50:08;;;;;;;4.78;0.60;;;11.80;99.90;;;;;;6210753;22;20016;-90
2022/09/16 02:52:53;;;;;;;1.20;0.30;;;11.80;99.90;;;;;;6209716;23;20386;-87
2022/09/16 02:56:01;;;;;;;3.10;0.28;;;11.80;99.90;;;;;;6210783;22;20031;-89
2022/09/16 02:58:28;;;;;;;2.42;0.30;;;11.80;99.90;;;;;;6185021;22;20101;-87
2022/09/16 03:00:57;;;;;;;0.55;0.20;;;11.80;99.90;;;;;;6211601;23;20105;-88
2022/09/16 03:03:23;;;;;;;1.02;0.20;;;11.80;99.90;;;;;;6212388;23;20017;-89
2022/09/16 03:06:20;;;;;;;3.00;0.22;;;11.80;99.90;;;;;;6211714;23;20024;-87
2022/09/16 03:08:48;;;;;;;0.80;0.20;;;11.70;99.90;;;;;;6211645;23;20008;-88
2022/09/16 03:11:52;;;;;;;1.38;0.20;;;11.70;99.90;;;;;;6210333;23;20054;-87
2022/09/16 03:15:20;;;;;;;2.03;0.20;;;11.70;99.90;;;;;;6210491;23;20502;-90
2022/09/16 03:18:06;;;;;;;1.45;0.20;;;11.70;99.90;;;;;;6185192;23;20425;-87
2022/09/16 03:20:44;;;;;;;1.08;0.30;;;11.70;99.90;;;;;;6209703;23;20013;-87
2022/09/16 03:23:47;;;;;;;2.13;0.25;;;11.70;99.90;;;;;;6185128;22;20053;-85
2022/09/16 03:26:40;;;;;;;1.10;0.17;;;11.70;99.90;;;;;;6210954;23;20027;-88
2022/09/16 03:29:27;;;;;;;1.65;0.30;;;11.70;99.90;;;;;;6210393;22;20394;-88
2022/09/16 03:32:11;;;;;;;2.20;0.20;;;11.70;99.90;;;;;;6185429;23;20442;-87
2022/09/16 03:34:39;;;;;;;2.45;0.25;;;11.60;99.90;;;;;;6185180;23;20012;-88
2022/09/16 03:37:08;;;;;;;1.15;0.40;;;11.60;99.90;;;;;;6210198;23;20353;-89
2022/09/16 03:39:35;;;;;;;1.83;0.20;;;11.60;99.90;;;;;;6210112;23;20510;-90
2022/09/16 03:42:03;;;;;;;3.00;0.80;;;11.60;99.90;;;;;;6185137;23;20017;-86
2022/09/16 03:44:38;;;;;;;1.00;0.25;;;11.50;99.90;;;;;;6184774;23;20016;-89
2022/09/16 03:47:04;;;;;;;1.27;0.30;;;11.50;99.90;;;;;;6185264;23;20020;-89
2022/09/16 03:49:30;;;;;;;2.42;0.20;;;11.50;99.90;;;;;;6184719;23;20016;-88
2022/09/16 03:51:56;;;;;;;0.43;0.10;;;11.50;99.90;;;;;;6184727;22;20024;-88
2022/09/16 03:54:22;;;;;;;1.55;0.22;;;11.50;99.90;;;;;;6210119;23;20017;-89
2022/09/16 03:56:48;;;;;;;2.43;0.30;;;11.40;99.90;;;;;;6211300;22;20039;-90
2022/09/16 03:59:13;;;;;;;2.70;0.50;;;11.40;99.90;;;;;;6184569;23;20016;-90
2022/09/16 04:01:39;;;;;;;3.00;0.50;;;11.40;99.90;;;;;;6211156;22;20094;-88
2022/09/16 04:04:05;;;;;;;2.40;0.30;;;11.30;99.90;;;;;;6209700;23;20017;-88
2022/09/16 04:06:31;;;;;;;2.17;0.40;;;11.30;99.90;;;;;;6184835;23;20024;-89
2022/09/16 04:08:59;;;;;;;0.63;0.30;;;11.30;99.90;;;;;;6210790;22;20248;-89
2022/09/16 04:11:28;;;;;;;0.57;0.10;;;11.30;99.90;;;;;;6210979;23;20016;-89
2022/09/16 04:13:54;;;;;;;1.80;0.15;;;11.30;99.90;;;;;;6212577;22;20052;-90
2022/09/16 04:16:20;;;;;;;1.13;0.30;;;11.30;99.90;;;;;;6210884;23;20024;-86
2022/09/16 04:18:47;;;;;;;0.75;0.20;;;11.30;99.90;;;;;;6211052;23;20334;-87
2022/09/16 04:21:13;;;;;;;0.70;0.10;;;11.30;99.90;;;;;;6186310;23;20468;-87
2022/09/16 04:23:39;;;;;;;1.60;0.30;;;11.20;99.90;;;;;;6161424;22;20013;-88
2022/09/16 04:26:10;;;;;;;2.37;0.40;;;11.30;99.90;;;;;;6137905;23;20022;-91
2022/09/16 04:28:36;;;;;;;1.92;0.35;;;11.30;99.90;;;;;;6210961;23;20017;-88
2022/09/16 04:31:07;;;;;;;3.80;0.40;;;11.20;99.90;;;;;;6214135;22;20013;-89
2022/09/16 04:33:34;;;;;;;4.45;0.38;;;11.20;99.90;;;;;;6220243;23;20028;-86
2022/09/16 04:36:08;;;;;;;2.38;0.22;;;11.20;99.90;;;;;;6212531;23;20420;-89
2022/09/16 04:38:35;;;;;;;1.90;0.40;;;11.20;99.90;;;;;;6186020;23;20027;-88
2022/09/16 04:41:05;;;;;;;;;;;11.10;99.90;;;;;;6213111;23;20098;-88
2022/09/16 04:43:31;;;;;;;2.28;0.40;;;11.20;99.90;;;;;;6212032;22;19915;-88
2022/09/16 04:45:57;;;;;;;2.65;0.30;;;11.10;99.90;;;;;;6210667;23;20100;-87
2022/09/16 04:48:24;;;;;;;1.25;0.30;;;11.10;99.90;;;;;;6210823;23;20049;-89
2022/09/16 04:50:50;;;;;;;;;;;11.10;99.90;;;;;;6211253;23;20349;-88
2022/09/16 04:53:16;;;;;;;0.95;0.25;;;11.10;99.90;;;;;;6210782;23;19951;-88
2022/09/16 04:56:04;;;;;;;0.83;0.17;;;11.10;99.90;;;;;;6212532;23;20028;-90
2022/09/16 04:58:30;;;;;;;2.08;0.30;;;11.10;99.90;;;;;;6160755;22;20752;-85
2022/09/16 05:01:03;;;;;;;1.95;0.32;;;11.10;99.90;;;;;;6184920;23;20017;-88
2022/09/16 05:03:28;;;;;;;0.47;0.30;;;11.10;99.90;;;;;;6209970;23;20081;-89
2022/09/16 05:06:03;;;;;;;3.10;0.50;;;11.10;99.90;;;;;;6190103;23;20021;-87
2022/09/16 05:08:29;;;;;;;1.63;0.20;;;11.10;99.90;;;;;;6217942;23;20017;-88
2022/09/16 05:11:21;;;;;;;2.27;0.30;;;11.10;99.90;;;;;;6210537;23;20027;-84
2022/09/16 05:14:16;;;;;;;0.60;0.20;;;11.10;99.90;;;;;;6183601;22;20018;-87
2022/09/16 05:16:46;;;;;;;1.13;0.40;;;11.10;99.90;;;;;;6183765;23;20096;-87
2022/09/16 05:19:13;;;;;;;0.28;0.10;;;11.10;99.90;;;;;;6183345;23;20457;-87
2022/09/16 05:21:40;;;;;;;0.75;0.20;;;11.00;99.90;;;;;;6208779;23;20024;-88
2022/09/16 05:24:07;;;;;;;;;;;11.00;99.90;;;;;;6208748;23;20013;-85
2022/09/16 05:26:41;;;;;;;2.05;0.30;;;11.00;99.90;;;;;;6209495;23;20380;-85
2022/09/16 05:29:11;;;;;;;1.52;0.32;;;11.00;99.90;;;;;;6181904;23;20380;-86
2022/09/16 05:31:39;;;;;;;1.35;0.20;;;11.00;99.90;;;;;;6208380;23;20379;-87
2022/09/16 05:34:17;;;;;;;1.20;0.30;;;11.00;99.90;;;;;;6208631;23;20017;-87
2022/09/16 05:36:46;;;;;;;1.13;0.20;;;11.00;99.90;;;;;;6208258;23;20614;-89
2022/09/16 05:39:15;;;;;;;1.48;0.20;;;10.90;99.90;;;;;;6208581;23;20032;-88
2022/09/16 05:41:41;;;;;;;1.95;0.47;;;10.90;99.90;;;;;;6183331;23;20477;-87
2022/09/16 05:44:07;;;;;;;2.37;0.20;;;10.90;99.90;;;;;;6159010;23;20020;-88
2022/09/16 05:46:32;;;;;;;3.90;0.37;;;10.90;99.90;;;;;;6183860;23;20042;-89
2022/09/16 05:48:58;;;;;;;0.45;0.35;;;10.90;99.90;;;;;;6208749;23;20526;-88
2022/09/16 05:51:24;;;;;;;5.93;2.77;;;11.00;99.90;;;;;;6208366;23;20075;-89
2022/09/16 05:53:52;;;;;;;3.88;0.60;;;11.00;99.90;;;;;;6208895;23;20047;-88
2022/09/16 05:56:24;;;;;;;1.65;0.28;;;11.00;99.90;;;;;;6208380;23;20016;-88
2022/09/16 05:58:54;;;;;;;0.47;0.20;;;11.00;99.90;;;;;;6209577;23;20084;-90
2022/09/16 06:01:26;;;;;;;2.65;0.20;;;11.00;99.90;;;;;;6181971;23;20028;-87
2022/09/16 06:03:53;;;;;;;1.05;0.22;;;11.00;99.90;;;;;;6209736;23;20017;-87
2022/09/16 06:06:28;;;;;;;0.30;0.10;;;11.00;99.90;;;;;;6209084;22;20096;-89
2022/09/16 06:08:59;;;;;;;2.75;0.40;;;11.10;99.90;;;;;;6161965;23;1120895;-91
2022/09/16 06:11:28;;;;;;;2.15;0.30;;;11.10;99.90;;;;;;6210366;23;20029;-87
2022/09/16 06:14:00;;;;;;;0.63;0.20;;;11.10;99.90;;;;;;6184852;23;20358;-87
2022/09/16 06:16:27;;;;;;;5.93;0.75;;;11.10;99.90;;;;;;6210104;23;20017;-88
2022/09/16 06:18:54;;;;;;;1.45;0.20;;;11.10;99.90;;;;;;6210035;23;20169;-85
2022/09/16 06:21:21;;;;;;;3.10;0.40;;;11.10;99.90;;;;;;6210111;23;20047;-86
2022/09/16 06:23:47;;;;;;;3.10;0.47;;;11.10;99.90;;;;;;6210061;23;20017;-86
2022/09/16 06:26:16;;;;;;;2.90;0.53;;;11.20;99.90;;;;;;6211541;23;20105;-84
2022/09/16 06:28:42;;;;;;;1.88;0.40;;;11.20;99.90;;;;;;6210068;23;20012;-84
2022/09/16 06:31:16;;;;;;;2.22;0.20;;;11.20;99.90;;;;;;6209580;23;20021;-89
2022/09/16 06:33:42;;;;;;;0.88;0.30;;;11.30;99.90;;;;;;6210040;23;20048;-86
2022/09/16 06:36:14;;;;;;;4.82;1.25;;;11.30;99.90;;;;;;6184785;23;20028;-87
2022/09/16 06:38:40;;;;;;;1.40;0.20;;;11.40;99.90;;;;;;6209862;23;20379;-86
2022/09/16 06:41:16;;;;;;;3.85;0.40;;;11.50;99.90;;;;;;6185554;23;20066;-84
2022/09/16 06:43:43;;;;;;;2.97;0.40;;;11.70;99.90;;;;;;6209946;23;20019;-86
2022/09/16 06:46:14;;;;;;;0.98;0.25;;;11.90;99.90;;;;;;6209825;23;20020;-87
2022/09/16 06:48:42;;;;;;;1.30;0.20;;;11.90;99.90;;;;;;6210113;23;20013;-87
2022/09/16 06:51:21;;;;;;;3.95;0.40;;;12.10;99.90;;;;;;6209866;23;20069;-87
2022/09/16 06:54:01;;;;;;;1.83;0.20;;;12.20;99.90;;;;;;6210037;23;20031;-88
2022/09/16 06:56:27;;;;;;;0.65;0.13;;;12.30;99.90;;;;;;6184744;23;20019;-86
2022/09/16 06:58:54;;;;;;;3.00;0.30;;;12.20;99.90;;;;;;6209976;23;20103;-88
2022/09/16 07:01:30;;;;;;;2.30;0.25;;;12.20;99.90;;;;;;6209801;23;20484;-86
2022/09/16 07:03:57;;;;;;;3.92;0.32;;;12.30;99.90;;;;;;6211342;23;20087;-88
2022/09/16 07:06:26;;;;;;;1.48;0.13;;;12.30;99.90;;;;;;6210282;23;20096;-87
2022/09/16 07:08:53;;;;;;;3.17;0.40;;;12.30;99.90;;;;;;6211689;23;20048;-86
2022/09/16 07:11:21;;;;;;;2.20;0.63;;;12.40;99.90;;;;;;6214560;23;20023;-85
2022/09/16 07:13:48;;;;;;;3.22;0.30;;;12.50;99.90;;;;;;6190474;23;20021;-86
2022/09/16 07:16:19;;;;;;;2.17;0.32;;;12.50;99.90;;;;;;6210076;23;20365;-86
2022/09/16 07:18:47;;;;;;;1.45;0.20;;;12.50;99.90;;;;;;6211092;23;20015;-89
2022/09/16 07:21:18;;;;;;;1.33;0.30;;;12.50;99.90;;;;;;6209443;23;20021;-87
2022/09/16 07:23:44;;;;;;;1.02;0.70;;;12.50;99.90;;;;;;6184599;23;20021;-85
2022/09/16 07:26:15;;;;;;;1.58;0.30;;;12.60;99.90;;;;;;6209893;23;20021;-86
2022/09/16 07:28:42;;;;;;;3.40;0.70;;;12.60;99.90;;;;;;6209565;23;20013;-86
2022/09/16 07:31:13;;;;;;;2.67;0.32;;;12.60;99.90;;;;;;6209544;23;20013;-86
2022/09/16 07:33:41;;;;;;;3.03;0.38;;;12.60;99.90;;;;;;6210980;23;20072;-85
2022/09/16 07:36:09;;;;;;;3.75;0.35;;;12.70;99.90;;;;;;6209541;23;20013;-84
2022/09/16 07:38:35;;;;;;;1.80;0.30;;;12.60;99.90;;;;;;6184503;23;20025;-85
2022/09/16 07:41:11;;;;;;;1.90;0.20;;;12.50;99.90;;;;;;6211350;22;20522;-85
2022/09/16 07:43:39;;;;;;;2.40;0.30;;;12.30;99.90;;;;;;6212458;23;20035;-86
2022/09/16 07:46:05;;;;;;;3.78;0.30;;;12.20;99.90;;;;;;6210760;23;20021;-86
2022/09/16 07:48:32;;;;;;;;;;;12.10;99.90;;;;;;6186505;22;20020;-88
2022/09/16 07:51:01;;;;;;;3.80;0.75;;;12.00;99.90;;;;;;6212621;23;19918;-86
2022/09/16 07:53:28;;;;;;;4.25;0.30;;;12.00;99.90;;;;;;6210655;23;20020;-86
2022/09/16 07:56:08;;;;;;;1.88;0.20;;;11.90;99.90;;;;;;6210530;23;20020;-85
2022/09/16 07:58:35;;;;;;;2.45;0.30;;;11.90;99.90;;;;;;6210110;23;20108;-86
2022/09/16 08:01:01;;;;;;;3.80;0.52;;;12.00;99.90;;;;;;6211397;23;20395;-85
2022/09/16 08:03:27;;;;;;;4.88;0.40;;;11.90;99.90;;;;;;6210581;23;20189;-86
2022/09/16 08:05:59;;;;;;;1.55;0.20;;;12.00;99.90;;;;;;6208609;23;20023;-85
2022/09/16 08:08:24;;;;;;;3.20;0.35;;;12.20;99.90;;;;;;6211791;23;20013;-85
2022/09/16 08:10:57;;;;;;;2.13;0.50;;;12.20;99.90;;;;;;6160943;23;20449;-86
2022/09/16 08:13:23;;;;;;;2.15;0.32;;;12.40;99.90;;;;;;6210658;23;20334;-85
2022/09/16 08:15:49;;;;;;;5.40;1.10;;;12.50;99.90;;;;;;6212428;23;20012;-85
2022/09/16 08:18:15;;;;;;;1.02;0.30;;;12.50;99.90;;;;;;6210480;22;20052;-88
2022/09/16 08:20:41;;;;;;;2.15;0.50;;;12.60;99.90;;;;;;6210859;22;20024;-85
2022/09/16 08:23:07;;;;;;;3.70;0.60;;;12.70;99.90;;;;;;6212422;23;20367;-86
2022/09/16 08:25:32;;;;;;;1.60;0.23;;;12.80;99.90;;;;;;6210356;23;20538;-86
2022/09/16 08:27:58;;;;;;;2.37;0.30;;;12.90;99.90;;;;;;6210733;22;20016;-85
2022/09/16 08:30:24;;;;;;;1.83;0.20;;;13.00;99.90;;;;;;6210529;23;20021;-85
2022/09/16 08:32:57;;;;;;;4.83;0.70;;;13.10;99.90;;;;;;6210917;23;20020;-88
2022/09/16 08:35:23;;;;;;;2.75;0.30;;;13.20;99.90;;;;;;6212080;23;20013;-87
2022/09/16 08:37:48;;;;;;;1.25;0.10;;;13.20;99.90;;;;;;6212224;23;20020;-84
2022/09/16 08:40:18;;;;;;;1.63;0.47;;;13.30;99.90;;;;;;6212126;23;20013;-85
2022/09/16 08:43:10;;;;;;;2.35;0.32;;;13.40;99.90;;;;;;6210645;23;20103;-85
2022/09/16 08:46:30;;;;;;;5.05;0.43;;;13.50;99.90;;;;;;6210137;23;20043;-85
2022/09/16 08:49:05;;;;;;;2.20;0.35;;;13.70;99.90;;;;;;6186331;23;20461;-87
2022/09/16 08:51:31;;;;;;;4.85;0.40;;;13.90;99.90;;;;;;6185461;22;20013;-86
2022/09/16 08:54:02;;;;;;;2.22;0.30;;;13.80;99.90;;;;;;6135791;23;20421;-87
2022/09/16 08:56:33;;;;;;;0.75;0.20;;;13.70;99.90;;;;;;6210541;23;20498;-86
2022/09/16 08:59:01;;;;;;;1.80;0.40;;;13.60;99.90;;;;;;6212025;23;20028;-87
2022/09/16 09:01:48;;;;;;;1.92;0.47;;;13.60;99.90;;;;;;6212050;23;20329;-89
2022/09/16 09:04:14;;;;;;;2.73;0.30;;;13.60;99.90;;;;;;6210590;23;20051;-86
2022/09/16 09:07:36;;;;;;;2.55;0.25;;;13.60;99.90;;;;;;6210465;23;20066;-84
2022/09/16 09:10:11;;;;;;;4.10;0.50;;;13.80;99.90;;;;;;6229032;23;20024;-86
2022/09/16 09:13:25;;;;;;;2.40;0.40;;;13.90;99.90;;;;;;6210571;22;20350;-85
2022/09/16 09:16:15;;;;;;;3.92;0.50;;;14.10;99.90;;;;;;6277402;22;20100;-86
2022/09/16 09:19:05;;;;;;;2.05;0.25;;;13.90;99.90;;;;;;6254325;22;20106;-86
2022/09/16 09:21:52;;;;;;;3.60;0.20;;;13.80;99.90;;;;;;6215096;23;20468;-84
2022/09/16 09:24:27;;;;;;;1.98;0.25;;;13.70;99.90;;;;;;6212063;23;20097;-88
2022/09/16 09:27:19;;;;;;;1.02;0.10;;;13.70;99.90;;;;;;6185117;23;20044;-86
2022/09/16 09:30:16;;;;;;;1.92;0.20;;;13.80;99.90;;;;;;6191713;23;20051;-86
2022/09/16 09:33:10;;;;;;;2.42;0.20;;;13.90;99.90;;;;;;6214446;22;20019;-85
2022/09/16 09:35:46;;;;;;;2.45;0.30;;;13.90;99.90;;;;;;6211775;23;20454;-85
2022/09/16 09:38:35;;;;;;;0.80;0.20;;;13.90;99.90;;;;;;6185016;23;20442;-85
2022/09/16 09:41:15;;;;;;;1.70;0.30;;;14.00;99.90;;;;;;6209343;23;20024;-85
2022/09/16 09:43:46;;;;;;;2.53;0.40;;;14.10;99.90;;;;;;6210368;23;20021;-85
2022/09/16 09:46:36;;;;;;;3.00;0.20;;;14.20;99.90;;;;;;6210376;23;20009;-88
2022/09/16 09:49:22;;;;;;;1.38;0.65;;;14.30;99.90;;;;;;6211343;23;20331;-86
2022/09/16 09:51:53;;;;;;;4.13;0.45;;;14.40;99.90;;;;;;6190542;23;20091;-86
2022/09/16 09:54:29;;;;;;;2.92;0.20;;;14.30;99.90;;;;;;6195672;22;20024;-86
2022/09/16 09:57:04;;;;;;;0.93;0.20;;;14.20;99.90;;;;;;6186824;22;20017;-88
2022/09/16 10:00:09;;;;;;;3.33;0.40;;;14.20;99.90;;;;;;6210110;22;20472;-85
2022/09/16 10:02:39;;;;;;;1.83;0.30;;;14.10;99.90;;;;;;6210233;23;20439;-87
2022/09/16 10:05:06;;;;;;;2.00;0.30;;;14.00;99.90;;;;;;6209442;23;20013;-86
2022/09/16 10:07:36;;;;;;;6.03;0.28;;;13.90;99.90;;;;;;6209972;23;20419;-85
2022/09/16 10:10:12;;;;;;;1.52;0.40;;;13.80;99.90;;;;;;6210122;23;20461;-87
2022/09/16 10:12:38;;;;;;;3.10;0.65;;;13.90;99.90;;;;;;6211755;23;20091;-88
2022/09/16 10:15:04;;;;;;;2.17;0.40;;;14.00;99.90;;;;;;6211638;23;20020;-86
2022/09/16 10:17:31;;;;;;;2.97;0.50;;;14.20;99.90;;;;;;6211735;23;20016;-85
2022/09/16 10:20:06;;;;;;;3.08;0.47;;;14.40;99.90;;;;;;6210175;23;20028;-87
2022/09/16 10:22:34;;;;;;;1.60;0.20;;;14.60;99.90;;;;;;6210284;23;20020;-88
2022/09/16 10:25:07;;;;;;;1.83;0.22;;;14.70;99.90;;;;;;6210066;23;20024;-89
2022/09/16 10:27:35;;;;;;;2.50;0.22;;;14.70;99.90;;;;;;6210084;23;20032;-86
2022/09/16 10:30:16;;;;;;;1.75;0.30;;;14.70;99.90;;;;;;6185295;23;20019;-87
2022/09/16 10:32:48;;;;;;;1.60;0.10;;;14.80;99.90;;;;;;6209614;23;20017;-87
2022/09/16 10:35:21;;;;;;;4.68;0.63;;;14.90;99.90;;;;;;6184938;22;20063;-86
2022/09/16 10:37:56;;;;;;;1.73;0.25;;;15.00;99.90;;;;;;6211540;23;20465;-86
2022/09/16 10:40:22;;;;;;;4.15;0.40;;;15.20;99.90;;;;;;6211399;23;20065;-85
2022/09/16 10:42:51;;;;;;;2.80;0.60;;;15.40;99.90;;;;;;6211261;23;20017;-86
2022/09/16 10:45:29;;;;;;;1.15;0.20;;;15.60;99.90;;;;;;6209958;23;20446;-88
2022/09/16 10:48:01;;;;;;;2.47;0.30;;;15.70;99.90;;;;;;6184863;23;20016;-86
2022/09/16 10:50:27;;;;;;;2.00;0.30;;;15.80;99.90;;;;;;6209872;23;20016;-84
2022/09/16 10:52:53;;;;;;;1.70;0.50;;;15.90;99.90;;;;;;6209964;23;20073;-85
2022/09/16 10:55:27;;;;;;;;;;;16.10;99.90;;;;;;6211828;23;20070;-87
2022/09/16 10:58:16;;;;;;;2.13;0.50;;;16.10;99.40;;;;;;6209777;23;19916;-91
2022/09/16 11:00:53;;;;;;;4.68;0.35;;;16.10;97.70;;;;;;6183749;23;20020;-87
2022/09/16 11:03:39;;;;;;;3.30;0.38;;;16.00;98.50;;;;;;6210302;23;20345;-91
2022/09/16 11:06:10;;;;;;;2.35;0.22;;;16.00;99.40;;;;;;6211373;22;20190;-89
2022/09/16 11:08:56;;;;;;;1.40;0.20;;;16.00;98.90;;;;;;6209837;23;20138;-89
2022/09/16 11:11:37;;;;;;;3.17;0.40;;;15.90;99.60;;;;;;6210043;23;20061;-90
2022/09/16 11:14:34;;;;;;;1.85;0.20;;;15.70;99.90;;;;;;6209895;23;20020;-91
2022/09/16 11:17:14;;;;;;;1.90;0.30;;;15.30;99.90;;;;;;6210235;22;20017;-90
2022/09/16 11:19:46;;;;;;;0.80;0.10;;;15.00;99.90;;;;;;6185160;23;20021;-93
2022/09/16 11:22:31;;;;;;;3.60;0.52;;;14.70;99.90;;;;;;6210598;23;20410;-92
2022/09/16 11:25:34;;;;;;;5.63;0.40;;;14.60;99.90;;;;;;6209959;22;20454;-89
2022/09/16 11:28:21;;;;;;;5.68;0.60;;;14.70;99.90;;;;;;6210268;23;20021;-90
2022/09/16 11:31:19;;;;;;;4.32;0.50;;;14.90;99.90;;;;;;6211627;22;20013;-93
2022/09/16 11:34:11;;;;;;;5.85;0.43;;;15.10;99.90;;;;;;6209952;23;20021;-94
2022/09/16 11:37:03;;;;;;;2.63;0.40;;;15.40;99.90;;;;;;6185054;23;20053;-90
2022/09/16 11:39:56;;;;;;;4.47;1.20;;;15.60;99.80;;;;;;6210113;23;20021;-90
2022/09/16 11:42:33;;;;;;;3.65;0.70;;;15.90;99.50;;;;;;6209779;23;20112;-89
2022/09/16 11:45:17;;;;;;;4.22;1.17;;;16.00;99.90;;;;;;6160119;22;20472;-91
2022/09/16 11:48:06;;;;;;;3.20;0.40;;;16.20;99.90;;;;;;6211156;22;20150;-89
2022/09/16 11:50:35;;;;;;;3.85;0.50;;;16.20;99.10;;;;;;6213020;23;20430;-89
2022/09/16 11:53:39;;;;;;;10.10;1.15;;;16.20;99.00;;;;;;6207040;23;20017;-91
2022/09/16 11:56:17;;;;;;;4.25;0.50;;;16.00;98.10;;;;;;6214413;22;20028;-89
2022/09/16 11:59:07;;;;;;;3.38;0.50;;;15.90;98.50;;;;;;6209977;23;20021;-90
2022/09/16 12:01:48;;;;;;;4.47;1.00;;;15.70;98.70;;;;;;6211125;23;20453;-88
2022/09/16 12:04:20;;;;;;;2.28;0.38;;;15.60;98.70;;;;;;6209511;23;20122;-89
2022/09/16 12:07:06;;;;;;;5.05;0.93;;;15.50;99.40;;;;;;6211128;22;20028;-91
2022/09/16 12:10:08;;;;;;;4.78;0.80;;;15.50;99.50;;;;;;6209508;23;20116;-90
2022/09/16 12:12:51;;;;;;;3.53;0.38;;;15.50;99.90;;;;;;6124713;23;20027;-89
2022/09/16 12:15:19;;;;;;;5.28;0.90;;;15.50;99.90;;;;;;6209387;23;20013;-89
2022/09/16 12:17:56;;;;;;;5.70;0.80;;;15.50;99.90;;;;;;6209628;23;20445;-90
2022/09/16 12:20:51;;;;;;;3.78;0.75;;;15.50;98.90;;;;;;6210746;23;20009;-88
2022/09/16 12:23:24;;;;;;;3.83;0.70;;;15.50;98.10;;;;;;6187198;23;20330;-91
2022/09/16 12:26:30;;;;;;;5.50;0.57;;;15.60;98.30;;;;;;6209667;23;20016;-91
2022/09/16 12:29:04;;;;;;;3.60;0.65;;;15.60;98.30;;;;;;6185012;23;20017;-90
2022/09/16 12:31:52;;;;;;;8.35;1.00;;;15.60;97.20;;;;;;6185460;23;20013;-91
2022/09/16 12:34:27;;;;;;;4.72;0.60;;;15.60;97.90;;;;;;6185939;23;20021;-91
2022/09/16 12:37:22;;;;;;;4.32;0.32;;;15.60;98.20;;;;;;6185696;23;20052;-89
2022/09/16 12:39:48;;;;;;;2.97;0.63;;;15.60;98.70;;;;;;6185637;23;20449;-88
2022/09/16 12:42:33;;;;;;;5.63;0.85;;;15.50;98.50;;;;;;6212287;23;20096;-88
2022/09/16 12:45:19;;;;;;;2.03;0.28;;;15.40;99.00;;;;;;6212336;23;20048;-89
2022/09/16 12:48:26;;;;;;;1.95;0.52;;;15.30;99.10;;;;;;6212221;23;20100;-89
2022/09/16 12:51:17;;;;;;;2.58;0.73;;;15.30;98.00;;;;;;6211016;23;20091;-91
2022/09/16 12:53:59;;;;;;;4.15;0.35;;;15.30;99.00;;;;;;6185835;22;20506;-92
2022/09/16 12:56:57;;;;;;;0.90;0.20;;;15.30;99.60;;;;;;6185779;23;20444;-91
2022/09/16 12:59:28;;;;;;;2.95;0.47;;;15.40;99.70;;;;;;6187179;22;20099;-90
2022/09/16 13:02:14;;;;;;;2.08;0.40;;;15.40;99.40;;;;;;6185841;23;20337;-90
2022/09/16 13:04:44;;;;;;;1.17;0.10;;;15.50;99.20;;;;;;6185612;23;20036;-90
2022/09/16 13:07:27;;;;;;;2.03;0.40;;;15.50;98.70;;;;;;6185638;23;20025;-90
2022/09/16 13:10:03;;;;;;;2.70;0.40;;;15.40;99.70;;;;;;6210662;23;20081;-91
2022/09/16 13:12:30;;;;;;;3.33;0.45;;;15.30;99.90;;;;;;6185764;23;20020;-89
2022/09/16 13:15:04;;;;;;;2.72;0.28;;;14.90;99.90;;;;;;6185562;23;20342;-91
2022/09/16 13:17:33;;;;;;;1.70;0.30;;;14.50;99.90;;;;;;6160878;22;20020;-90
2022/09/16 13:20:06;;;;;;;2.75;0.30;;;14.30;99.90;;;;;;6209219;23;20442;-90
2022/09/16 13:22:43;;;;;;;3.38;0.30;;;14.00;99.90;;;;;;6184930;23;20482;-91
2022/09/16 13:25:29;;;;;;;0.70;0.20;;;13.80;99.90;;;;;;6210190;23;20073;-89
2022/09/16 13:27:57;;;;;;;2.42;0.20;;;13.70;99.90;;;;;;6211926;23;20100;-89
2022/09/16 13:30:31;;;;;;;1.55;0.20;;;13.60;99.90;;;;;;6210819;23;20096;-89